Jorge Miranda

Olheiro-Chefe - Sporting CP
13 Fev 2028
Domingo
Processo

Personalidade

Adaptabilidade (10) Ambição (6) Controvérsia (1) Lealdade (14) Pressão (5) Profissionalismo (1) Espírito Esportivo (6) Temperamento (4)

Perfil

Estilo de Treinamento Democrático
Licença Continental B
Determinação 13
Gestão de Pessoas 8
Motivação 11
Disciplina 8
Satisfação no Trabalho
100%
Fadiga
0%
Função Olheiro-Chefe
Salário 90.9K p/s
Contrato 14.03.2029

Desempenho

Comportamento Bom
Eficácia do Treinamento
54%
Desenvolvimento do Jogador
35%
Prevenção de Lesões
40%
Implementação Tática
60%

Eventos Recentes

Recomendou um alvo de transferência agora
Recomendou um alvo de transferência agora
Recomendou um alvo de transferência agora
Participou de uma reunião de recrutamento agora
Participou de uma reunião de recrutamento agora
Avaliou um jogador agora
Avaliou um jogador agora
Avaliou um jogador agora

Monitorando agora

184
Jogador Clube Status Habilidade Confiança Observado Última observação Último voto
João Pedro Chelsea Ativo 158 / 155 40% 14 12.02.2028 -
Nicolas Jackson Aston Villa Ativo 155 / 150 40% 5 12.02.2028 -
Mohamed-Ali Cho Hull City Ativo 144 / 148 40% 14 12.02.2028 -
Gabriel Martinelli Arsenal Ativo 169 / 168 40% 4 11.02.2028 -
Georginio Rutter Brighton Ativo 156 / 155 40% 24 11.02.2028 -
Brennan Johnson Middlesbrough Ativo 153 / 147 40% 2 11.02.2028 -
Rodrigo Muniz Fulham Ativo 145 / 146 40% 5 10.02.2028 -
Xavier Biscayzacú Defensor Sporting Ativo 131 / 146 40% 7 10.02.2028 -
Savinho Tottenham Ativo 163 / 167 40% 2 10.02.2028 -
Luis Quintero Torreense Ativo 132 / 136 40% 1 10.02.2028 -
José Manuel López Palmeiras Ativo 139 / 144 40% 1 10.02.2028 -
Iliman N'Diaye Everton Ativo 164 / 161 40% 3 08.02.2028 -
Liel Abada Inter Miami CF Ativo 139 / 128 40% 2 08.02.2028 -
William Osula Wrexham Ativo 137 / 135 40% 2 07.02.2028 -
Allan Reading Ativo 141 / 143 40% 2 07.02.2028 -
Breno Bidon Corinthians Ativo 129 / 132 40% 2 07.02.2028 -
Ferran Torres Paris Saint-Germain Ativo 171 / 172 40% 1 06.02.2028 -
Sorriso Famalicao Ativo 137 / 142 40% 7 04.02.2028 Observar
Vinícius Júnior Paris Saint-Germain Ativo 181 / 175 40% 1 04.02.2028 -
Gustavo Neves Bragantino Ativo 130 / 122 40% 4 03.02.2028 -
Adrián Liso Zaragoza Ativo 134 / 136 40% 4 03.02.2028 -
Hugo Ekitiké Liverpool Ativo 170 / 168 40% 1 03.02.2028 -
Gonzalo Fulham Ativo 152 / 146 40% 19 01.02.2028 -
Pau Víctor Braga Rejeitado 147 / 138 40% 10 31.01.2028 Rejeitar
Stanis Idumbo AC Ajaccio Ativo 138 / 138 40% 3 31.01.2028 -
Mohammed Kudus Tottenham Ativo 164 / 164 40% 1 31.01.2028 -
Lucas Assadi AIK Ativo 133 / 123 40% 1 29.01.2028 -
Daniel Karlsbakk Sarpsborg 08 Ativo 131 / 122 40% 1 28.01.2028 -
Xavi Simons Tottenham Ativo 163 / 156 40% 3 27.01.2028 -
Henrik Meister Pisa Ativo 131 / 131 40% 3 27.01.2028 -
Désiré Doué Stade Brestois Ativo 167 / 166 40% 2 27.01.2028 -
Diego Luna Real Salt Lake Ativo 130 / 141 40% 1 24.01.2028 -
Cauan Barros Flamengo Ativo 133 / 130 40% 4 23.01.2028 -
Victor Lind Hammarby Ativo 130 / 136 40% 1 23.01.2028 -
Victor Hugo Atlético Mineiro Ativo 130 / 135 40% 3 21.01.2028 -
Abdoul Ouattara Port Vale Ativo 135 / 130 40% 2 20.01.2028 -
Kaique Kenji Fortaleza Ativo 116 / 109 40% 2 16.01.2028 -
Alex Luna Instituto Ativo 133 / 134 40% 3 13.01.2028 -
Víctor Gómez Braga Ativo 145 / 153 40% 2 12.01.2028 -
Martín Zubimendi Arsenal Ativo 169 / 168 40% 1 12.01.2028 -
Kauã Moraes Flamengo Ativo 131 / 120 40% 1 12.01.2028 -
Dor Turgeman Rubin Ativo 135 / 138 40% 1 09.01.2028 -
Ben Gannon Doak Charlton Athletic Ativo 150 / 156 40% 1 08.01.2028 -
Bitello Universidad de Chile Ativo 135 / 135 68% 1 01.01.2028 Aprovar
Amadou Onana Aston Villa Ativo 160 / 154 40% 3 31.12.2027 -
Nico González Newcastle United Ativo 166 / 163 40% 2 31.12.2027 -
Matteo Ruggeri Middlesbrough Ativo 157 / 154 40% 1 31.12.2027 -
Shedrach Ebite Portimonense Ativo 106 / 111 30% 1 / 1m 03.11.2027 -
Mateus Mané Burnley Ativo 139 / 154 40% 5 30.08.2027 -
Mathys Tel Tottenham Ativo 148 / 159 40% 6 30.08.2027 -
Benjamin Šeško Manchester United Ativo 156 / 158 40% 12 26.08.2027 -
Agustín Ruberto River Plate Ativo 121 / 139 40% 1 26.08.2027 -
Siyabonga Mabena Bidvest Wits Ativo 117 / 125 40% 1 22.08.2027 -
Bradley Barcola Liverpool Ativo 164 / 166 40% 3 21.08.2027 -
Stefanos Tzimas Brighton Ativo 140 / 147 40% 1 21.08.2027 -
Bénie Traoré New York City Ativo 128 / 122 40% 4 20.08.2027 -
Santiago Castro AS Roma Ativo 151 / 158 40% 8 20.08.2027 -
Wesley AS Roma Ativo 153 / 162 40% 2 20.08.2027 -
Bjorn Meijer Sampdoria Ativo 130 / 122 40% 1 20.08.2027 -
Alexander Aravena Portland Timbers Ativo 129 / 132 40% 4 19.08.2027 -
Giorgi Kvernadze Frosinone Ativo 131 / 132 40% 2 19.08.2027 -
Jesús Rodríguez Como Ativo 150 / 154 40% 1 19.08.2027 -
Fábio Carvalho Brentford Ativo 143 / 140 40% 9 16.08.2027 -
Jeff Ekhator Juventus Ativo 134 / 147 40% 15 16.08.2027 -
Kenan Yıldız Juventus Ativo 166 / 163 40% 6 15.08.2027 -
Eli Junior Kroupi Bournemouth Ativo 143 / 150 40% 1 14.08.2027 -
Eduardo Lozano Botafogo Ativo 143 / 157 40% 2 13.08.2027 -
Andrés Gómez Vasco da Gama Ativo 138 / 132 40% 1 12.08.2027 -
Babis Kostoulas Oxford United Ativo 138 / 142 40% 1 12.08.2027 -
Rodrigo Gomes Wolverhampton Ativo 144 / 138 40% 3 09.08.2027 -
Uchenna Ogundu FC Augsburg Ativo 127 / 130 40% 3 09.08.2027 -
Sidiki Chérif Newcastle United Ativo 133 / 142 40% 2 09.08.2027 -
Toby Collyer West Bromwich Albion Ativo 137 / 143 40% 1 09.08.2027 -
Leo Castledine Middlesbrough Ativo 132 / 141 40% 11 07.08.2027 -
Matías Fernández-Pardo Chelsea Ativo 146 / 148 40% 1 07.08.2027 -
Ollie Scarles West Ham United Ativo 134 / 136 40% 2 06.08.2027 -
Martin Baturina Como Ativo 145 / 138 40% 1 06.08.2027 -
Fer López Wolverhampton Ativo 140 / 140 40% 1 06.08.2027 -
Ilyas Ansah Hull City Ativo 136 / 137 40% 5 03.08.2027 -
Ezekiel Kwame Alladoh Philadelphia Union Ativo 117 / 130 40% 1 03.08.2027 -
Liam Delap Manchester United Ativo 150 / 157 40% 1 02.08.2027 -
Assane Diao Como Ativo 150 / 157 40% 12 01.08.2027 -
Max Johnston Derby County Ativo 134 / 126 40% 2 01.08.2027 -
Tommy Conway Middlesbrough Ativo 133 / 125 40% 10 30.07.2027 -
Andre Brooks Sheffield United Ativo 133 / 130 40% 2 30.07.2027 -
Jacques Ekomié Wrexham Ativo 135 / 137 40% 2 30.07.2027 -
Joel Orlando Almagro Ativo 112 / 110 40% 1 30.07.2027 -
Caspar Jander Southampton Ativo 136 / 128 40% 1 25.07.2027 -
Mohamadou Kanté Crawley Town Ativo 119 / 134 40% 1 25.07.2027 -
Shea Charles Southampton Ativo 142 / 135 40% 4 23.07.2027 -
Bongani Zungu Ajax Cape Town Ativo 131 / 128 40% 2 23.07.2027 -
Bosun Lawal Stoke City Ativo 131 / 136 40% 1 23.07.2027 -
Jack McGlynn Stoke City Ativo 135 / 133 40% 2 22.07.2027 -
Deniz Gül Galatasaray Ativo 132 / 117 40% 7 17.07.2027 -
Franculino Brighton Ativo 143 / 141 40% 1 17.07.2027 -
Sayed Abu Farchi Maccabi Tel Aviv Ativo 121 / 122 40% 1 16.07.2027 -
Jay Stansfield Birmingham Ativo 131 / 130 40% 1 13.07.2027 -
Mario Dorgeles Braga Ativo 138 / 134 40% 2 07.07.2027 Mais informações
Ethan Williams Peterborough United Ativo 115 / 126 40% 1 07.07.2027 -
Roberto Fernández Braga Ativo 143 / 154 40% 12 23.06.2027 -
Markus Jensen Nacional Ativo 111 / 118 40% 1 22.06.2027 -
Rafael Moreno Atletico Venezuela Ativo 110 / 113 40% 1 22.06.2027 -
Nordi Mukiele Sunderland Ativo 147 / 144 40% 1 18.06.2027 -
Alex Scott Bournemouth Ativo 152 / 151 40% 1 18.06.2027 -
James Garner Everton Ativo 152 / 145 40% 1 18.06.2027 -
Noussair Mazraoui Manchester United Ativo 155 / 153 40% 1 16.06.2027 -
Tyler Adams Bournemouth Ativo 154 / 147 40% 5 15.06.2027 -
Maxence Lacroix Chelsea Ativo 152 / 146 40% 2 15.06.2027 -
Óscar Mingueza Crystal Palace Ativo 154 / 143 40% 2 15.06.2027 -
Jarrad Branthwaite Everton Ativo 155 / 158 40% 1 14.06.2027 -
Emanuel Emegha Chelsea Ativo 140 / 144 40% 7 27.05.2027 -
Nicolò Tresoldi Club Brugge Ativo 133 / 133 40% 12 26.05.2027 -
Younes Ebnoutalib Eintracht Frankfurt Ativo 133 / 139 40% 4 25.05.2027 -
Rafiu Durosinmi Racing Genk Ativo 133 / 126 40% 7 20.05.2027 -
Pablo Felipe West Ham United Ativo 135 / 141 40% 7 13.05.2027 -
Josh Keeley Luton Town Ativo 127 / 130 40% 1 02.05.2027 -
Ryan Oné Sheffield United Ativo 113 / 122 40% 1 29.04.2027 -
Marvin Keller Chelsea Ativo 143 / 146 40% 1 28.04.2027 -
Sławomir Abramowicz Jagiellonia Ativo 124 / 124 40% 1 23.04.2027 -
Jakub Badžgoň MSK Zilina Ativo 103 / 114 40% 1 18.04.2027 -
Robin Roefs Sunderland Ativo 145 / 141 40% 1 18.04.2027 -
Juan Diego Castillo Vitoria Guimaraes Ativo 122 / 116 40% 1 18.04.2027 -
James Trafford Leeds United Ativo 143 / 154 40% 1 17.04.2027 -
Pascal Loretz Luzern Ativo 128 / 139 40% 1 16.04.2027 -
Joe Gelhardt Hull City Ativo 132 / 123 40% 4 08.04.2027 -
Sindre Walle Egeli Udinese Ativo 131 / 129 40% 2 07.04.2027 -
Leandro Brey Boca Juniors Ativo 122 / 121 40% 1 05.04.2027 -
Antonio Gomis Vizela Ativo 124 / 123 40% 1 05.04.2027 -
Toni Tamarit Alverca Ativo 118 / 119 40% 1 26.03.2027 -
Gabriel Silva Braga Ativo 132 / 133 40% 1 11.03.2027 -
Morgan Rogers Chelsea Ativo 156 / 152 40% 3 09.03.2027 -
Rocco Vata Watford Ativo 122 / 120 40% 1 07.03.2027 -
Giacomo Raspadori Atalanta Ativo 150 / 152 40% 1 11.01.2027 -
Jacob Ramsey Newcastle United Ativo 150 / 150 40% 1 04.01.2027 -
Kai Havertz Arsenal Ativo 163 / 157 40% 8 03.01.2027 -
Morgan Gibbs-White Nottingham Forest Ativo 153 / 162 40% 3 03.01.2027 -
Mason Mount Manchester United Ativo 150 / 160 40% 2 02.01.2027 -
Yeremy Pino Crystal Palace Ativo 152 / 148 40% 2 02.01.2027 -
Marcel Ruiz Crystal Palace Perdido 140 / 141 66% 1 01.01.2027 -
Luiz Henrique AS Roma Perdido 142 / 143 68% 1 01.01.2027 Aprovar
Roberto Alvarado Borussia Mönchengladbach Ativo 139 / 139 66% 1 01.01.2027 Aprovar
Ismaïla Sarr Crystal Palace Ativo 152 / 150 40% 1 31.12.2026 -
Vinícius Lopes Santa Clara Ativo 122 / 130 40% 3 24.12.2026 -
Rafael Navarro Famalicao Ativo 124 / 116 40% 4 23.12.2026 -
Gustavo Silva Vitoria Guimaraes Ativo 121 / 117 40% 2 20.12.2026 -
Kevin Fulham Ativo 148 / 148 40% 1 20.12.2026 -
Boubacar Kamara Aston Villa Ativo 165 / 158 40% 1 20.12.2026 -
Wilson Isidor Sunderland Ativo 138 / 140 40% 4 17.12.2026 -
Henrique Araújo Casa Pia Ativo 124 / 120 40% 1 14.12.2026 -
Manor Solomon West Ham United Ativo 140 / 129 40% 1 11.12.2026 -
Carlos Álvarez Club America Ativo 140 / 141 40% 1 08.12.2026 -
Peter Valjent FK Senica Ativo 120 / 113 40% 2 04.12.2026 -
Tyrese Campbell Sheffield United Ativo 127 / 123 40% 3 01.12.2026 -
Igor Jesus Nottingham Forest Ativo 144 / 145 40% 3 28.11.2026 -
Yanis Begraoui Estoril Praia Ativo 130 / 138 40% 5 24.11.2026 -
Yousef Salech Cardiff City Ativo 129 / 129 40% 2 23.11.2026 -
Carlos Vicente Birmingham Ativo 141 / 136 40% 3 21.11.2026 -
Jadon Sancho Manchester United Ativo 147 / 152 40% 3 20.11.2026 -
Sota Kitano Red Bull Salzburg Ativo 121 / 126 40% 1 16.11.2026 -
Marcus Edwards Burnley Ativo 136 / 142 40% 1 13.11.2026 -
Alexis Mac Allister Liverpool Ativo 162 / 159 40% 1 03.11.2026 -
Alejandro Piedrahita Deportivo Pereira Ativo 120 / 133 40% 3 28.10.2026 -
Alexis Cuello San Lorenzo Ativo 129 / 140 40% 1 25.10.2026 -
Talles Magno New York City Ativo 129 / 129 40% 5 24.10.2026 -
Noni Madueke Arsenal Ativo 151 / 146 40% 1 19.10.2026 -
Kevin Schade Chelsea Ativo 147 / 158 40% 2 18.10.2026 -
Eddie Nketiah Crystal Palace Ativo 138 / 141 40% 1 15.10.2026 -
Matt O'Riley Brighton Ativo 146 / 147 40% 1 12.10.2026 -
Manu Koné AS Roma Ativo 161 / 151 40% 1 12.10.2026 -
Jesus Ferreira Seattle Sounders Ativo 126 / 142 40% 1 03.10.2026 -
Wessam Abou Ali Columbus Crew Ativo 133 / 135 40% 5 02.10.2026 -
Martín Ojeda Orlando City Ativo 131 / 141 40% 1 29.09.2026 -
Tadeo Allende Inter Miami CF Ativo 124 / 115 40% 2 28.09.2026 -
Alejo Cruz Juventud Ativo 116 / 106 40% 1 24.09.2026 -
Kévin Denkey FC Cincinnati Ativo 132 / 142 40% 1 23.09.2026 -
Aune Heggebø West Bromwich Albion Ativo 128 / 129 40% 1 21.09.2026 -
Dejan Joveljić Seattle Sounders Ativo 126 / 125 40% 2 20.09.2026 -
Taty Castellanos West Ham United Ativo 144 / 138 40% 1 18.09.2026 -
Misael Sosa Godoy Cruz Ativo 111 / 102 40% 1 15.09.2026 -
Luciano Cosentino Wanderers Ativo 121 / 122 40% 1 12.09.2026 -
Cheikh Sabaly Vancouver Whitecaps Ativo 128 / 108 40% 1 10.09.2026 -
Fernando Fonseca Leixões Ativo 109 / 105 86% 1 03.08.2026 Aprovar
Malcom Al Jazira Ativo 149 / 153 40% 1 03.08.2026 -
Rúben Neves Al-Hilal Ativo 150 / 132 40% 1 03.08.2026 -